Time;durP1;ratioP1;P1;durP2;ratioP2;P2;SDS_P1;SDS_P2;PMS_P1;PMS_P2;Temp;Humidity;BMP_temperature;BMP_pressure;BME280_temperature;BME280_humidity;BME280_pressure;Samples;Min_cycle;Max_cycle;Signal;HPM_P1;HPM_P2
2023/01/09 00:01:47;;;;;;;3.17;2.97;;;5.50;95.70;;;;;;5055935;28;20414;-78
2023/01/09 00:04:13;;;;;;;4.20;3.73;;;5.50;97.80;;;;;;5054964;28;20453;-76
2023/01/09 00:06:39;;;;;;;3.20;2.90;;;5.50;98.30;;;;;;5055344;28;20834;-75
2023/01/09 00:09:05;;;;;;;3.77;3.47;;;5.50;97.10;;;;;;5054413;28;20414;-78
2023/01/09 00:11:31;;;;;;;5.50;3.60;;;5.50;99.80;;;;;;5055899;28;20167;-75
2023/01/09 00:13:57;;;;;;;3.97;3.57;;;5.40;99.90;;;;;;5055533;28;20874;-77
2023/01/09 00:16:23;;;;;;;4.40;4.17;;;5.40;99.90;;;;;;5054860;28;20532;-78
2023/01/09 00:18:48;;;;;;;3.37;3.17;;;5.40;99.90;;;;;;5054347;28;20171;-77
2023/01/09 00:21:15;;;;;;;3.60;3.30;;;5.40;99.90;;;;;;5054251;28;20163;-75
2023/01/09 00:23:41;;;;;;;6.97;3.53;;;5.40;99.90;;;;;;5054848;28;20159;-76
2023/01/09 00:26:08;;;;;;;3.77;3.20;;;5.30;99.90;;;;;;5053342;28;20431;-76
2023/01/09 00:28:34;;;;;;;3.83;3.53;;;5.40;99.90;;;;;;5054041;28;20623;-77
2023/01/09 00:31:02;;;;;;;5.00;4.30;;;5.40;99.90;;;;;;5053895;28;20408;-75
2023/01/09 00:33:37;;;;;;;3.00;2.90;;;5.40;99.90;;;;;;5037531;28;20413;-78
2023/01/09 00:36:03;;;;;;;3.30;3.00;;;5.40;99.90;;;;;;5054297;28;20445;-78
2023/01/09 00:38:29;;;;;;;4.80;2.93;;;5.40;99.90;;;;;;5053722;28;20421;-76
2023/01/09 00:40:56;;;;;;;5.90;3.10;;;5.50;99.90;;;;;;5055313;28;20405;-75
2023/01/09 00:43:27;;;;;;;2.87;2.67;;;5.40;99.90;;;;;;5053159;28;20232;-76
2023/01/09 00:45:52;;;;;;;3.23;3.03;;;5.40;99.90;;;;;;5053971;28;20421;-78
2023/01/09 00:48:26;;;;;;;4.17;3.83;;;5.30;99.90;;;;;;5054971;28;20919;-76
2023/01/09 00:50:58;;;;;;;3.10;2.90;;;5.40;99.90;;;;;;5038123;28;20167;-78
2023/01/09 00:53:28;;;;;;;3.67;3.37;;;5.30;99.90;;;;;;5053666;28;20409;-75
2023/01/09 00:55:56;;;;;;;3.00;2.80;;;5.40;99.90;;;;;;5036864;28;20844;-76
2023/01/09 00:58:22;;;;;;;5.30;3.30;;;5.40;99.90;;;;;;5054710;28;20441;-76
2023/01/09 01:00:49;;;;;;;4.23;3.10;;;5.30;99.90;;;;;;5054806;28;20401;-78
2023/01/09 01:03:16;;;;;;;3.77;3.47;;;5.30;99.90;;;;;;5052708;28;20429;-76
2023/01/09 01:08:25;;;;;;;3.47;3.17;;;5.30;99.90;;;;;;5054542;28;20420;-78
2023/01/09 01:10:51;;;;;;;3.70;3.33;;;5.30;99.90;;;;;;5054584;28;20409;-75
2023/01/09 01:13:18;;;;;;;3.27;3.07;;;5.30;99.90;;;;;;5054517;28;20167;-78
2023/01/09 01:15:45;;;;;;;4.17;3.77;;;5.30;99.90;;;;;;5052496;28;20811;-76
2023/01/09 01:18:12;;;;;;;3.93;3.73;;;5.30;99.90;;;;;;5053198;28;20453;-76
2023/01/09 01:20:43;;;;;;;3.40;3.20;;;5.30;99.90;;;;;;5052598;28;20507;-75
2023/01/09 01:23:09;;;;;;;3.33;3.13;;;5.30;99.90;;;;;;5036413;28;20823;-77
2023/01/09 01:25:40;;;;;;;3.27;3.07;;;5.30;99.90;;;;;;5053697;28;20556;-77
2023/01/09 01:28:08;;;;;;;3.63;3.27;;;5.30;99.90;;;;;;5054251;28;20535;-77
2023/01/09 01:30:38;;;;;;;3.43;3.23;;;5.30;99.90;;;;;;5053979;28;20430;-78
2023/01/09 01:33:04;;;;;;;6.70;3.47;;;5.30;99.90;;;;;;5054113;28;20886;-78
2023/01/09 01:35:30;;;;;;;3.30;3.07;;;5.30;99.90;;;;;;5053334;28;20448;-75
2023/01/09 01:37:55;;;;;;;3.73;3.47;;;5.20;99.90;;;;;;5036171;28;20206;-78
2023/01/09 01:40:21;;;;;;;4.83;4.43;;;5.20;99.90;;;;;;5052277;28;20531;-76
2023/01/09 01:42:53;;;;;;;4.10;3.03;;;5.20;99.90;;;;;;5052605;28;20178;-78
2023/01/09 01:45:21;;;;;;;3.10;2.90;;;5.20;99.90;;;;;;5053148;28;20196;-78
2023/01/09 01:48:09;;;;;;;4.23;3.93;;;5.20;99.90;;;;;;5053826;28;20404;-76
2023/01/09 01:50:47;;;;;;;4.67;3.97;;;5.20;99.90;;;;;;5053770;28;20414;-76
2023/01/09 01:53:21;;;;;;;2.83;2.63;;;5.20;99.90;;;;;;5052497;28;20443;-76
2023/01/09 01:56:09;;;;;;;3.60;3.30;;;5.30;99.90;;;;;;5052985;28;20419;-76
2023/01/09 01:59:09;;;;;;;3.90;3.60;;;5.30;99.90;;;;;;5051562;28;20455;-78
2023/01/09 02:01:39;;;;;;;3.50;3.30;;;5.30;99.90;;;;;;5053394;28;20408;-77
2023/01/09 02:04:05;;;;;;;3.33;3.13;;;5.30;99.90;;;;;;5052091;28;20421;-78
2023/01/09 02:06:32;;;;;;;3.40;3.20;;;5.40;99.90;;;;;;5053147;28;20385;-77
2023/01/09 02:08:59;;;;;;;3.33;3.13;;;5.40;99.90;;;;;;5053519;28;20878;-78
2023/01/09 02:11:25;;;;;;;4.00;3.67;;;5.40;99.90;;;;;;5053436;28;20488;-75
2023/01/09 02:13:51;;;;;;;3.77;3.57;;;5.40;99.90;;;;;;5053299;28;20724;-78
2023/01/09 02:16:32;;;;;;;3.70;3.40;;;5.40;99.90;;;;;;5051391;28;20886;-77
2023/01/09 02:19:23;;;;;;;3.53;3.33;;;5.40;99.90;;;;;;5052703;28;20406;-78
2023/01/09 02:22:13;;;;;;;3.50;3.30;;;5.40;99.90;;;;;;5053206;28;20497;-78
2023/01/09 02:25:07;;;;;;;3.07;2.90;;;5.50;99.90;;;;;;5052453;28;20417;-78
2023/01/09 02:27:51;;;;;;;3.73;3.53;;;5.60;99.90;;;;;;5053209;28;20400;-76
2023/01/09 02:30:25;;;;;;;4.30;3.90;;;5.60;99.90;;;;;;5053315;28;20829;-77
2023/01/09 02:33:31;;;;;;;4.13;3.57;;;5.70;99.90;;;;;;5051863;28;20420;-79
2023/01/09 02:36:10;;;;;;;4.27;3.90;;;5.70;99.90;;;;;;5051610;28;20444;-76
2023/01/09 02:38:58;;;;;;;4.53;4.13;;;5.70;99.90;;;;;;5052791;28;20504;-78
2023/01/09 02:41:39;;;;;;;3.67;3.47;;;5.80;99.90;;;;;;5052913;28;20401;-77
2023/01/09 02:44:22;;;;;;;4.40;4.00;;;5.90;99.90;;;;;;5051608;28;20449;-76
2023/01/09 02:47:00;;;;;;;4.13;3.73;;;5.90;99.90;;;;;;5053026;28;20401;-78
2023/01/09 02:49:27;;;;;;;3.60;3.30;;;5.90;99.90;;;;;;5051650;28;20420;-76
2023/01/09 02:52:15;;;;;;;4.27;3.50;;;6.00;99.90;;;;;;5052905;28;20755;-78
2023/01/09 02:54:52;;;;;;;5.70;3.80;;;6.00;99.90;;;;;;5052119;28;20909;-76
2023/01/09 02:57:18;;;;;;;4.20;3.80;;;6.00;99.90;;;;;;5050911;28;20455;-78
2023/01/09 02:59:52;;;;;;;4.40;4.07;;;6.00;99.90;;;;;;5051592;28;20422;-78
2023/01/09 03:02:38;;;;;;;4.20;3.70;;;6.00;99.90;;;;;;5052910;28;20166;-78
2023/01/09 03:05:27;;;;;;;5.27;4.50;;;6.10;99.90;;;;;;5052098;28;20425;-78
2023/01/09 03:08:05;;;;;;;4.17;3.83;;;6.10;99.90;;;;;;5052711;28;20967;-76
2023/01/09 03:10:39;;;;;;;4.73;4.33;;;6.20;99.90;;;;;;5054822;28;20424;-77
2023/01/09 03:13:07;;;;;;;3.67;3.37;;;6.10;99.90;;;;;;5056864;28;20409;-77
2023/01/09 03:15:36;;;;;;;4.10;3.70;;;6.20;99.90;;;;;;5055336;28;20424;-78
2023/01/09 03:18:04;;;;;;;4.40;4.10;;;6.20;99.90;;;;;;5056625;28;20453;-78
2023/01/09 03:20:31;;;;;;;4.10;3.80;;;6.30;99.90;;;;;;5055418;28;20760;-78
2023/01/09 03:23:02;;;;;;;5.57;4.13;;;6.20;99.90;;;;;;5055247;28;20471;-76
2023/01/09 03:25:30;;;;;;;4.70;4.30;;;6.30;99.90;;;;;;5055950;28;20421;-78
2023/01/09 03:28:01;;;;;;;3.93;3.60;;;6.30;99.90;;;;;;5056499;28;20488;-78
2023/01/09 03:30:29;;;;;;;4.30;3.90;;;6.30;99.90;;;;;;5055150;28;20930;-77
2023/01/09 03:32:55;;;;;;;3.93;3.63;;;6.30;99.90;;;;;;5055259;28;20429;-78
2023/01/09 03:35:21;;;;;;;4.20;3.90;;;6.30;99.90;;;;;;5054987;28;20814;-76
2023/01/09 03:37:47;;;;;;;4.33;4.03;;;6.40;99.90;;;;;;5055999;28;20432;-77
2023/01/09 03:40:13;;;;;;;3.80;3.50;;;6.40;99.90;;;;;;5056425;28;20389;-78
2023/01/09 03:42:39;;;;;;;5.20;4.80;;;6.40;99.90;;;;;;5056238;28;20164;-76
2023/01/09 03:45:05;;;;;;;4.40;4.10;;;6.50;99.90;;;;;;5055488;28;20228;-78
2023/01/09 03:47:31;;;;;;;4.53;4.23;;;6.40;99.90;;;;;;5056296;28;20170;-78
2023/01/09 03:49:56;;;;;;;7.27;4.87;;;6.50;99.90;;;;;;5055987;28;20398;-76
2023/01/09 03:52:22;;;;;;;4.97;3.97;;;6.50;99.90;;;;;;5056212;28;20155;-78
2023/01/09 03:54:48;;;;;;;4.80;4.50;;;6.50;99.90;;;;;;5054886;28;20271;-78
2023/01/09 03:57:14;;;;;;;4.30;4.00;;;6.50;99.90;;;;;;5054665;28;20238;-77
2023/01/09 03:59:39;;;;;;;5.73;4.93;;;6.50;99.90;;;;;;5055947;28;20168;-77
2023/01/09 04:02:06;;;;;;;4.53;4.17;;;6.50;99.90;;;;;;5055834;28;20177;-78
2023/01/09 04:04:31;;;;;;;4.60;4.20;;;6.50;99.90;;;;;;5055137;28;20226;-76
2023/01/09 04:06:57;;;;;;;4.20;3.80;;;6.50;99.90;;;;;;5055940;28;20425;-77
2023/01/09 04:09:23;;;;;;;7.27;4.73;;;6.50;99.90;;;;;;5054812;28;20194;-77
2023/01/09 04:11:48;;;;;;;6.27;5.00;;;6.50;99.90;;;;;;5055591;28;20163;-78
2023/01/09 04:14:15;;;;;;;8.30;5.90;;;6.50;99.90;;;;;;5054920;28;20191;-77
2023/01/09 04:16:40;;;;;;;4.60;4.20;;;6.60;99.90;;;;;;5055028;28;20253;-78
2023/01/09 04:19:06;;;;;;;4.23;3.93;;;6.60;99.90;;;;;;5055591;28;20439;-77
2023/01/09 04:21:32;;;;;;;4.67;4.27;;;6.70;99.90;;;;;;5053362;28;20225;-76
2023/01/09 04:23:57;;;;;;;4.83;4.43;;;6.60;99.90;;;;;;5053986;28;20262;-78
2023/01/09 04:26:23;;;;;;;3.97;3.70;;;6.70;99.90;;;;;;5054821;28;20238;-77
2023/01/09 04:28:49;;;;;;;4.10;3.80;;;6.70;99.90;;;;;;5055592;28;20163;-76
2023/01/09 04:31:15;;;;;;;4.43;4.03;;;6.70;99.90;;;;;;5054768;28;20171;-76
2023/01/09 04:33:40;;;;;;;5.30;4.80;;;6.70;99.90;;;;;;5055301;28;20167;-76
2023/01/09 04:36:06;;;;;;;4.80;4.40;;;6.70;99.90;;;;;;5054365;28;20206;-78
2023/01/09 04:38:32;;;;;;;4.63;4.23;;;6.70;99.90;;;;;;5055177;28;20199;-77
2023/01/09 04:40:58;;;;;;;5.37;4.87;;;6.70;99.90;;;;;;5055194;28;20878;-76
2023/01/09 04:43:24;;;;;;;4.60;4.20;;;6.70;99.90;;;;;;5055112;28;20163;-76
2023/01/09 04:45:49;;;;;;;5.20;4.80;;;6.60;99.90;;;;;;5054786;28;20544;-77
2023/01/09 04:48:15;;;;;;;5.30;4.10;;;6.70;99.90;;;;;;5054964;28;20678;-76
2023/01/09 04:50:41;;;;;;;9.10;5.33;;;6.70;99.90;;;;;;5054298;28;20170;-77
2023/01/09 04:53:06;;;;;;;5.40;4.90;;;6.70;99.90;;;;;;5053890;28;20171;-77
2023/01/09 04:55:32;;;;;;;5.27;4.87;;;6.70;99.90;;;;;;5054252;28;20260;-77
2023/01/09 04:57:58;;;;;;;5.40;4.53;;;6.70;99.90;;;;;;5054806;28;20552;-76
2023/01/09 05:00:24;;;;;;;7.40;5.37;;;6.70;99.90;;;;;;5054702;28;20394;-77
2023/01/09 05:02:50;;;;;;;4.60;4.20;;;6.70;99.90;;;;;;5054775;28;20520;-77
2023/01/09 05:05:15;;;;;;;5.17;4.63;;;6.80;99.90;;;;;;5053978;28;20639;-76
2023/01/09 05:07:41;;;;;;;4.27;3.97;;;6.80;99.90;;;;;;5053631;28;20175;-77
2023/01/09 05:10:08;;;;;;;4.87;4.47;;;6.80;99.90;;;;;;5052743;28;20181;-77
2023/01/09 05:12:35;;;;;;;4.87;4.37;;;6.80;99.90;;;;;;5054403;28;20174;-77
2023/01/09 05:15:01;;;;;;;4.90;4.50;;;6.80;99.90;;;;;;5053989;28;20513;-76
2023/01/09 05:17:27;;;;;;;6.00;5.30;;;6.80;99.90;;;;;;5054367;28;20449;-76
2023/01/09 05:19:53;;;;;;;5.77;5.17;;;6.80;99.90;;;;;;5053379;28;20504;-76
2023/01/09 05:22:18;;;;;;;5.00;4.60;;;6.80;99.90;;;;;;5053098;28;20620;-76
2023/01/09 05:24:44;;;;;;;5.50;4.27;;;6.80;99.90;;;;;;5052563;28;20249;-76
2023/01/09 05:27:10;;;;;;;5.70;4.53;;;6.80;99.90;;;;;;5053776;28;20167;-76
2023/01/09 05:29:36;;;;;;;6.80;4.53;;;6.90;99.90;;;;;;5054297;28;20178;-76
2023/01/09 05:32:01;;;;;;;5.90;5.40;;;6.90;99.90;;;;;;5054167;28;20262;-77
2023/01/09 05:34:27;;;;;;;8.73;6.50;;;6.90;99.90;;;;;;5053282;28;20465;-77
2023/01/09 05:36:53;;;;;;;5.00;4.60;;;6.90;99.90;;;;;;5054149;28;20203;-77
2023/01/09 05:39:18;;;;;;;6.53;5.53;;;6.90;99.90;;;;;;5053973;28;20155;-80
2023/01/09 05:41:44;;;;;;;8.27;5.57;;;6.90;99.90;;;;;;5054029;28;20170;-80
2023/01/09 05:44:10;;;;;;;5.57;5.07;;;6.80;99.90;;;;;;5052511;28;20214;-80
2023/01/09 05:46:36;;;;;;;6.53;5.90;;;6.90;99.90;;;;;;5052729;28;20167;-76
2023/01/09 05:49:02;;;;;;;6.10;5.60;;;6.90;99.90;;;;;;5053944;28;20808;-77
2023/01/09 05:51:29;;;;;;;6.23;5.00;;;6.80;99.90;;;;;;5038536;28;20185;-79
2023/01/09 05:53:55;;;;;;;6.30;4.73;;;6.90;99.90;;;;;;5033213;28;20543;-77
2023/01/09 05:56:21;;;;;;;6.77;6.17;;;6.90;99.90;;;;;;5032878;28;20419;-79
2023/01/09 05:58:46;;;;;;;9.20;6.00;;;6.90;99.90;;;;;;5033670;28;20167;-80
2023/01/09 06:01:12;;;;;;;5.90;5.40;;;6.80;99.90;;;;;;5033783;28;20166;-76
2023/01/09 06:03:38;;;;;;;6.30;5.70;;;6.80;99.90;;;;;;5033768;28;20167;-80
2023/01/09 06:06:04;;;;;;;5.70;5.20;;;6.90;99.90;;;;;;5032537;28;20184;-79
2023/01/09 06:08:29;;;;;;;8.03;5.07;;;6.90;99.90;;;;;;5033547;28;20167;-77
2023/01/09 06:10:55;;;;;;;6.00;5.53;;;6.90;99.90;;;;;;5033444;28;20887;-80
2023/01/09 06:13:21;;;;;;;7.00;5.43;;;7.00;99.90;;;;;;5033480;28;20167;-76
2023/01/09 06:15:47;;;;;;;8.00;5.70;;;7.00;99.90;;;;;;5032621;28;20245;-80
2023/01/09 06:18:13;;;;;;;6.97;6.27;;;7.00;99.90;;;;;;5033433;28;20682;-81
2023/01/09 06:20:38;;;;;;;6.10;5.50;;;7.00;99.90;;;;;;5033316;28;20418;-77
2023/01/09 06:23:04;;;;;;;5.10;4.70;;;7.00;99.90;;;;;;5033326;28;20290;-78
2023/01/09 06:25:29;;;;;;;7.20;5.30;;;6.90;99.90;;;;;;5032337;28;20572;-77
2023/01/09 06:27:55;;;;;;;5.20;4.70;;;6.90;99.90;;;;;;5033361;28;20164;-77
2023/01/09 06:30:21;;;;;;;5.70;4.50;;;6.90;99.90;;;;;;5033210;28;20202;-76
2023/01/09 06:32:49;;;;;;;5.73;4.90;;;6.90;99.90;;;;;;5033183;28;20637;-76
2023/01/09 06:35:21;;;;;;;4.83;4.33;;;6.90;99.90;;;;;;5031072;28;20303;-78
2023/01/09 06:37:48;;;;;;;5.33;4.87;;;6.90;99.90;;;;;;5033052;28;20469;-76
2023/01/09 06:40:15;;;;;;;5.60;5.20;;;6.90;99.90;;;;;;5031949;28;20501;-76
2023/01/09 06:42:44;;;;;;;10.50;5.43;;;6.90;99.90;;;;;;5033096;28;20426;-76
2023/01/09 06:45:11;;;;;;;5.13;4.70;;;6.90;99.90;;;;;;5030253;28;20499;-79
2023/01/09 06:47:38;;;;;;;7.93;5.10;;;7.00;99.90;;;;;;5033188;28;20883;-80
2023/01/09 06:50:04;;;;;;;6.80;5.27;;;6.90;99.90;;;;;;5031754;28;20402;-80
2023/01/09 06:52:31;;;;;;;6.30;5.13;;;6.90;99.90;;;;;;5031736;28;20422;-76
2023/01/09 06:54:56;;;;;;;6.43;5.90;;;7.00;99.90;;;;;;5032375;28;20422;-81
2023/01/09 06:57:22;;;;;;;7.43;5.70;;;7.00;99.90;;;;;;5031675;28;20926;-81
2023/01/09 06:59:48;;;;;;;6.33;5.73;;;7.00;99.90;;;;;;5032953;28;20175;-80
2023/01/09 07:02:21;;;;;;;6.00;5.20;;;7.10;99.90;;;;;;5032733;28;20246;-77
2023/01/09 07:04:47;;;;;;;6.83;5.17;;;7.10;99.90;;;;;;5032265;28;20603;-79
2023/01/09 07:07:13;;;;;;;6.73;6.00;;;7.10;99.90;;;;;;5032851;28;20402;-79
2023/01/09 07:09:39;;;;;;;6.10;5.33;;;7.00;99.90;;;;;;5032805;28;20418;-76
2023/01/09 07:12:05;;;;;;;8.30;5.77;;;7.00;99.90;;;;;;5032787;28;20425;-76
2023/01/09 07:14:31;;;;;;;5.73;5.23;;;7.00;99.90;;;;;;5032080;28;20192;-78
2023/01/09 07:16:57;;;;;;;4.27;3.97;;;7.00;99.90;;;;;;5032777;28;20191;-78
2023/01/09 07:19:23;;;;;;;5.50;4.73;;;6.90;99.90;;;;;;5032615;28;20156;-76
2023/01/09 07:21:48;;;;;;;4.80;4.40;;;6.90;99.90;;;;;;5032493;28;20490;-76
2023/01/09 07:24:14;;;;;;;4.03;3.73;;;7.00;99.90;;;;;;5032544;28;20446;-79
2023/01/09 07:26:40;;;;;;;4.43;4.13;;;6.90;99.90;;;;;;5032227;28;20251;-76
2023/01/09 07:29:06;;;;;;;5.07;4.23;;;7.00;99.90;;;;;;5032650;28;20175;-79
2023/01/09 07:31:31;;;;;;;4.27;3.97;;;6.90;99.90;;;;;;5032652;28;20176;-76
2023/01/09 07:33:59;;;;;;;3.80;3.60;;;6.90;99.90;;;;;;5032636;28;20233;-77
2023/01/09 07:36:26;;;;;;;4.10;3.80;;;6.90;99.90;;;;;;5030674;28;20440;-76
2023/01/09 07:38:53;;;;;;;4.37;3.80;;;6.90;99.90;;;;;;5033203;28;20493;-77
2023/01/09 07:41:20;;;;;;;3.93;3.53;;;6.90;99.90;;;;;;5031007;28;20402;-78
2023/01/09 07:43:49;;;;;;;6.77;4.23;;;6.90;99.90;;;;;;5032204;28;20410;-76
2023/01/09 07:46:17;;;;;;;4.80;4.00;;;6.90;99.90;;;;;;5031906;28;20402;-77
2023/01/09 07:48:42;;;;;;;3.83;3.53;;;6.90;99.90;;;;;;5032588;28;20406;-77
2023/01/09 07:51:09;;;;;;;4.13;3.20;;;6.90;99.90;;;;;;5031340;28;20455;-75
2023/01/09 07:53:35;;;;;;;3.40;3.10;;;6.90;99.90;;;;;;4998484;28;20531;-78
2023/01/09 07:56:03;;;;;;;3.70;3.40;;;6.90;99.90;;;;;;5014940;28;20393;-76
2023/01/09 07:58:28;;;;;;;3.50;3.00;;;7.00;99.90;;;;;;5018520;28;20449;-75
2023/01/09 08:00:56;;;;;;;3.23;3.03;;;6.90;99.90;;;;;;5034608;28;20418;-75
2023/01/09 08:03:21;;;;;;;3.00;2.80;;;6.90;99.90;;;;;;5034803;28;20184;-77
2023/01/09 08:05:47;;;;;;;2.73;2.63;;;6.90;99.90;;;;;;5035025;28;20431;-77
2023/01/09 08:08:13;;;;;;;3.07;2.77;;;6.90;99.90;;;;;;5034426;28;20178;-75
2023/01/09 08:10:41;;;;;;;3.50;3.30;;;6.90;99.90;;;;;;5035762;28;21321;-76
2023/01/09 08:13:07;;;;;;;3.70;3.20;;;6.90;99.90;;;;;;5034663;28;20489;-78
2023/01/09 08:15:33;;;;;;;3.37;2.90;;;6.90;99.90;;;;;;5035117;28;20505;-75
2023/01/09 08:17:58;;;;;;;3.40;3.20;;;6.90;99.90;;;;;;5035460;28;20656;-78
2023/01/09 08:20:24;;;;;;;3.80;3.10;;;6.80;99.90;;;;;;5034096;28;20410;-78
2023/01/09 08:22:52;;;;;;;6.73;3.60;;;6.80;99.90;;;;;;5035635;28;20633;-77
2023/01/09 08:25:18;;;;;;;3.57;3.27;;;6.80;99.90;;;;;;5033569;28;20192;-75
2023/01/09 08:27:44;;;;;;;4.23;3.67;;;6.80;99.90;;;;;;5017731;28;20787;-76
2023/01/09 08:30:10;;;;;;;3.30;3.10;;;6.70;99.90;;;;;;5035536;28;20247;-75
2023/01/09 08:32:36;;;;;;;3.30;3.10;;;6.80;99.90;;;;;;5035402;28;20414;-77
2023/01/09 08:35:02;;;;;;;3.47;2.80;;;6.80;99.90;;;;;;5034725;28;20433;-78
2023/01/09 08:37:28;;;;;;;4.17;3.47;;;6.80;99.90;;;;;;5034913;28;20453;-77
2023/01/09 08:39:54;;;;;;;4.03;3.57;;;6.70;99.90;;;;;;5035067;28;20906;-78
2023/01/09 08:47:49;;;;;;;3.80;3.50;;;6.70;99.90;;;;;;5035075;28;20845;-78
2023/01/09 08:50:14;;;;;;;3.53;3.23;;;6.70;99.90;;;;;;5035076;28;20407;-74
2023/01/09 08:52:40;;;;;;;3.70;3.40;;;6.70;99.90;;;;;;5034938;28;20433;-76
2023/01/09 08:55:06;;;;;;;3.47;3.23;;;6.80;99.90;;;;;;5034082;28;20188;-76
2023/01/09 08:57:32;;;;;;;3.73;3.43;;;6.70;99.90;;;;;;5035033;28;20199;-75
2023/01/09 08:59:58;;;;;;;6.23;5.83;;;6.60;99.90;;;;;;5034774;28;20402;-77
2023/01/09 09:02:23;;;;;;;3.87;3.57;;;6.70;99.90;;;;;;5034853;28;20636;-77
2023/01/09 09:04:51;;;;;;;3.13;2.93;;;6.60;99.90;;;;;;5033600;28;20191;-75
2023/01/09 09:07:25;;;;;;;4.07;3.77;;;6.60;99.90;;;;;;5033141;28;20182;-75
2023/01/09 09:09:52;;;;;;;3.77;3.47;;;6.60;99.90;;;;;;5034933;28;20402;-76
2023/01/09 09:12:18;;;;;;;3.07;2.87;;;6.60;99.90;;;;;;5034371;28;20401;-75
2023/01/09 09:17:28;;;;;;;3.87;3.57;;;6.70;99.90;;;;;;5034487;28;20503;-74
2023/01/09 09:19:53;;;;;;;3.80;3.50;;;6.70;99.90;;;;;;5033241;28;20411;-75
2023/01/09 09:22:19;;;;;;;7.10;4.30;;;6.80;99.90;;;;;;5034425;28;20171;-76
2023/01/09 09:24:45;;;;;;;4.90;4.60;;;6.80;99.90;;;;;;5033761;28;20195;-75
2023/01/09 09:27:10;;;;;;;4.50;4.10;;;6.80;99.90;;;;;;5043770;28;20177;-76
2023/01/09 09:29:36;;;;;;;4.20;3.90;;;6.80;99.90;;;;;;5054273;28;20174;-76
2023/01/09 09:32:02;;;;;;;5.17;4.77;;;6.80;99.90;;;;;;5043710;28;20176;-75
2023/01/09 09:34:28;;;;;;;4.67;4.27;;;6.80;99.90;;;;;;5032844;28;20197;-75
2023/01/09 09:36:54;;;;;;;4.60;3.87;;;6.90;99.90;;;;;;5042045;28;20671;-75
2023/01/09 09:39:19;;;;;;;5.07;4.57;;;6.80;99.90;;;;;;5054034;28;20428;-76
2023/01/09 09:45:31;;;;;;;9.87;5.50;;;6.90;99.90;;;;;;5033360;28;20694;-74
2023/01/09 09:48:15;;;;;;;6.53;5.17;;;7.00;99.90;;;;;;5050303;28;20413;-76
2023/01/09 09:51:13;;;;;;;5.97;5.40;;;7.00;99.90;;;;;;5044805;28;20425;-76
2023/01/09 09:53:53;;;;;;;7.60;6.23;;;7.00;99.90;;;;;;5053325;28;20519;-74
2023/01/09 09:56:22;;;;;;;6.20;5.27;;;7.00;99.90;;;;;;5052110;28;21059;-75
2023/01/09 09:58:56;;;;;;;6.63;5.70;;;7.00;99.90;;;;;;5053510;28;20401;-74
2023/01/09 10:01:38;;;;;;;8.27;5.50;;;7.00;99.90;;;;;;5041993;28;20779;-74
2023/01/09 10:04:09;;;;;;;5.83;5.33;;;7.10;99.90;;;;;;5033440;28;20390;-76
2023/01/09 10:06:42;;;;;;;6.37;5.37;;;7.10;99.90;;;;;;5033144;28;20433;-75
2023/01/09 10:09:53;;;;;;;6.60;5.90;;;7.20;99.90;;;;;;5033346;28;20405;-75
2023/01/09 10:12:27;;;;;;;7.30;5.97;;;7.20;99.90;;;;;;5041324;28;21016;-75
2023/01/09 10:14:56;;;;;;;8.17;6.77;;;7.30;99.90;;;;;;5050426;28;20520;-76
2023/01/09 10:17:30;;;;;;;16.20;6.47;;;7.30;99.90;;;;;;5033393;28;20490;-74
2023/01/09 10:20:23;;;;;;;11.47;6.97;;;7.40;99.90;;;;;;5034087;28;20390;-75
2023/01/09 10:23:01;;;;;;;8.33;6.53;;;7.40;99.90;;;;;;5053124;28;20918;-74
2023/01/09 10:25:36;;;;;;;8.90;6.37;;;7.40;99.90;;;;;;5050548;28;20487;-75
2023/01/09 10:28:14;;;;;;;8.27;6.60;;;7.40;99.90;;;;;;5052816;28;20457;-74
2023/01/09 10:30:42;;;;;;;9.30;6.73;;;7.50;99.90;;;;;;5042642;28;20445;-75
2023/01/09 10:33:31;;;;;;;8.07;6.20;;;7.50;99.90;;;;;;5038590;28;20428;-75
2023/01/09 10:36:34;;;;;;;13.30;7.40;;;7.50;99.90;;;;;;5052016;28;20448;-77
2023/01/09 10:39:03;;;;;;;7.27;6.03;;;7.50;99.90;;;;;;5033124;28;20465;-74
2023/01/09 10:41:37;;;;;;;9.80;6.67;;;7.50;99.90;;;;;;5052610;28;20803;-75
2023/01/09 10:44:20;;;;;;;10.03;6.80;;;7.50;99.90;;;;;;5052400;28;20527;-77
2023/01/09 10:46:54;;;;;;;8.93;6.37;;;7.50;99.90;;;;;;5033049;28;20429;-75
2023/01/09 10:49:22;;;;;;;10.70;6.40;;;7.50;99.90;;;;;;5033629;28;20425;-75
2023/01/09 10:51:51;;;;;;;7.50;6.70;;;7.50;99.90;;;;;;5052608;28;20423;-74
2023/01/09 10:54:21;;;;;;;7.00;5.70;;;7.50;99.90;;;;;;5048761;28;20931;-77
2023/01/09 10:57:06;;;;;;;6.50;5.83;;;7.60;99.90;;;;;;5032910;28;20807;-75
2023/01/09 10:59:31;;;;;;;11.90;7.33;;;7.60;99.90;;;;;;5037375;28;20425;-74
2023/01/09 11:01:57;;;;;;;9.77;6.60;;;7.60;99.90;;;;;;5045000;28;20422;-74
2023/01/09 11:04:29;;;;;;;10.33;5.97;;;7.60;99.90;;;;;;5034946;28;20791;-75
2023/01/09 11:06:59;;;;;;;9.50;7.00;;;7.60;99.90;;;;;;5052775;28;20171;-74
2023/01/09 11:09:25;;;;;;;13.77;7.30;;;7.60;99.90;;;;;;5049640;28;20417;-75
2023/01/09 11:11:51;;;;;;;9.23;6.90;;;7.60;99.90;;;;;;5032809;28;20783;-75
2023/01/09 11:14:26;;;;;;;7.43;6.70;;;7.70;99.90;;;;;;5033318;28;20521;-76
2023/01/09 11:17:01;;;;;;;13.10;5.60;;;7.80;99.90;;;;;;5052760;28;20192;-75
2023/01/09 11:19:29;;;;;;;10.40;7.17;;;7.90;99.90;;;;;;5049873;28;20421;-75
2023/01/09 11:22:15;;;;;;;9.47;5.87;;;7.70;99.90;;;;;;5032695;28;20421;-75
2023/01/09 11:24:41;;;;;;;8.20;6.30;;;7.70;99.90;;;;;;5035200;28;20437;-75
2023/01/09 11:27:12;;;;;;;10.40;6.57;;;7.70;99.90;;;;;;5052501;28;20398;-75
2023/01/09 11:29:42;;;;;;;9.03;6.07;;;7.60;99.90;;;;;;5049966;28;20186;-75
2023/01/09 11:32:22;;;;;;;7.00;5.90;;;7.60;99.90;;;;;;5050703;28;20495;-75
2023/01/09 11:34:48;;;;;;;6.80;5.83;;;7.50;99.90;;;;;;5051194;28;20448;-75
2023/01/09 11:37:24;;;;;;;6.50;5.90;;;7.50;99.90;;;;;;5035733;28;20467;-74
2023/01/09 11:39:50;;;;;;;17.70;6.27;;;7.40;99.90;;;;;;5036577;28;20425;-75
2023/01/09 11:42:50;;;;;;;10.73;6.07;;;7.40;99.90;;;;;;5044477;28;20512;-75
2023/01/09 11:45:21;;;;;;;9.83;5.27;;;7.50;99.90;;;;;;5046095;28;20787;-75
2023/01/09 11:47:46;;;;;;;9.50;6.60;;;7.50;99.90;;;;;;5036146;28;20544;-74
2023/01/09 11:50:18;;;;;;;14.20;6.43;;;7.40;99.90;;;;;;5052958;28;20921;-74
2023/01/09 11:52:44;;;;;;;6.20;5.60;;;7.40;99.90;;;;;;5056230;28;20447;-74
2023/01/09 11:55:14;;;;;;;7.83;5.67;;;7.40;99.90;;;;;;5039776;28;20449;-74
2023/01/09 11:57:40;;;;;;;5.93;4.90;;;7.40;99.90;;;;;;5055222;28;20926;-74
2023/01/09 12:00:27;;;;;;;10.10;5.57;;;7.40;99.90;;;;;;5040737;28;20425;-74
2023/01/09 12:03:17;;;;;;;10.50;6.00;;;7.30;95.80;;;;;;5036134;28;20464;-74
2023/01/09 12:06:11;;;;;;;17.97;6.23;;;7.20;92.30;;;;;;5053933;28;20984;-74
2023/01/09 12:09:03;;;;;;;7.77;6.30;;;7.20;93.20;;;;;;5053967;28;20406;-74
2023/01/09 12:11:33;;;;;;;9.53;5.97;;;7.20;92.10;;;;;;5035917;28;20433;-73
2023/01/09 12:14:24;;;;;;;7.57;5.40;;;7.20;93.00;;;;;;5034190;28;20409;-74
2023/01/09 12:17:19;;;;;;;8.63;6.97;;;7.10;80.60;;;;;;5041861;28;20961;-73
2023/01/09 12:19:54;;;;;;;8.27;6.23;;;7.00;86.70;;;;;;5055554;28;20401;-73
2023/01/09 12:22:56;;;;;;;7.23;6.33;;;6.90;92.20;;;;;;5045372;28;20417;-74
2023/01/09 12:25:39;;;;;;;11.70;7.47;;;6.80;93.60;;;;;;5034687;28;20422;-73
2023/01/09 12:28:25;;;;;;;12.83;5.70;;;6.90;97.00;;;;;;5049623;28;20417;-73
2023/01/09 12:31:21;;;;;;;7.50;6.47;;;6.90;98.50;;;;;;5055423;28;20440;-73
2023/01/09 12:34:18;;;;;;;6.80;6.07;;;6.80;95.10;;;;;;5034643;28;20410;-73
2023/01/09 12:37:25;;;;;;;13.50;7.73;;;6.80;93.80;;;;;;5038368;28;20483;-73
2023/01/09 12:40:06;;;;;;;8.67;6.03;;;6.80;97.00;;;;;;5040522;28;20428;-73
2023/01/09 12:43:01;;;;;;;11.87;7.70;;;6.90;97.80;;;;;;5034587;28;20501;-73
2023/01/09 12:45:39;;;;;;;10.77;7.80;;;7.00;98.60;;;;;;5037197;28;20452;-74
2023/01/09 12:48:14;;;;;;;12.70;8.23;;;6.90;90.60;;;;;;5055052;28;20413;-74
2023/01/09 12:50:49;;;;;;;13.43;8.20;;;6.90;91.30;;;;;;5050530;28;20539;-73
2023/01/09 12:53:23;;;;;;;12.00;8.00;;;6.90;91.50;;;;;;5050498;28;20773;-74
2023/01/09 12:56:02;;;;;;;11.50;7.63;;;6.90;86.20;;;;;;5052972;28;20441;-73
2023/01/09 12:58:53;;;;;;;15.73;8.90;;;6.80;86.80;;;;;;5053467;28;20457;-73
2023/01/09 13:01:31;;;;;;;16.70;9.30;;;6.80;89.10;;;;;;5050882;28;20425;-74
2023/01/09 13:04:05;;;;;;;11.83;8.57;;;6.80;92.30;;;;;;5054529;28;20462;-74
2023/01/09 13:06:32;;;;;;;16.60;9.50;;;6.90;95.90;;;;;;5053166;28;20904;-73
2023/01/09 13:09:19;;;;;;;17.40;8.93;;;6.80;93.50;;;;;;5053723;28;20468;-75
2023/01/09 13:12:01;;;;;;;15.10;9.20;;;6.80;94.40;;;;;;5034130;28;20418;-74
2023/01/09 13:14:46;;;;;;;10.70;8.57;;;6.80;94.30;;;;;;5036289;28;20477;-75
2023/01/09 13:17:37;;;;;;;16.33;9.13;;;6.80;93.10;;;;;;5054471;28;20846;-75
2023/01/09 13:20:16;;;;;;;17.33;7.83;;;6.80;93.60;;;;;;5046915;28;20468;-73
2023/01/09 13:22:48;;;;;;;16.40;8.13;;;6.80;92.80;;;;;;5034614;28;20402;-75
2023/01/09 13:25:17;;;;;;;13.00;8.50;;;6.80;92.60;;;;;;5037328;28;20870;-74
2023/01/09 13:27:53;;;;;;;18.07;7.80;;;6.80;92.10;;;;;;5042006;28;20446;-75
2023/01/09 13:30:43;;;;;;;11.30;7.97;;;6.90;92.40;;;;;;5033699;28;20405;-74